Time;durP1;ratioP1;P1;durP2;ratioP2;P2;SDS_P1;SDS_P2;PMS_P1;PMS_P2;Temp;Humidity;BMP_temperature;BMP_pressure;BME280_temperature;BME280_humidity;BME280_pressure;Samples;Min_cycle;Max_cycle;Signal;HPM_P1;HPM_P2
2021/12/27 00:01:52;;;;;;;;;;;5.00;51.60;;;;;;5107024;28;19965;-67
2021/12/27 00:04:18;;;;;;;;;;;5.00;51.60;;;;;;5111904;28;19996;-67
2021/12/27 00:06:43;;;;;;;;;;;5.00;51.70;;;;;;5110276;28;20015;-67
2021/12/27 00:09:09;;;;;;;;;;;5.00;51.70;;;;;;5111973;28;19947;-67
2021/12/27 00:11:34;;;;;;;;;;;5.00;51.80;;;;;;5103602;28;19999;-67
2021/12/27 00:14:00;;;;;;;;;;;4.90;52.40;;;;;;5111800;28;19911;-67
2021/12/27 00:16:26;;;;;;;;;;;5.00;51.90;;;;;;5096371;28;19916;-67
2021/12/27 00:18:51;;;;;;;;;;;5.00;51.90;;;;;;5091496;28;20313;-67
2021/12/27 00:21:17;;;;;;;;;;;5.00;51.90;;;;;;5094019;28;19981;-67
2021/12/27 00:23:43;;;;;;;;;;;5.00;52.00;;;;;;5111753;28;19908;-67
2021/12/27 00:26:09;;;;;;;;;;;5.00;52.00;;;;;;5111974;28;20238;-68
2021/12/27 00:28:34;;;;;;;;;;;5.00;52.00;;;;;;5111671;28;19908;-67
2021/12/27 00:31:01;;;;;;;;;;;5.00;52.00;;;;;;5111804;28;20256;-67
2021/12/27 00:33:27;;;;;;;;;;;5.00;52.00;;;;;;5111352;28;20034;-67
2021/12/27 00:35:53;;;;;;;;;;;5.00;52.00;;;;;;5091445;28;19947;-67
2021/12/27 00:38:18;;;;;;;;;;;5.00;52.00;;;;;;5091414;28;20003;-67
2021/12/27 00:40:44;;;;;;;;;;;5.10;52.10;;;;;;5091389;28;19916;-67
2021/12/27 00:43:10;;;;;;;;;;;5.10;52.10;;;;;;5104883;28;19911;-67
2021/12/27 00:45:36;;;;;;;;;;;5.10;52.70;;;;;;5112844;28;19908;-67
2021/12/27 00:48:01;;;;;;;;;;;5.10;52.10;;;;;;5096768;28;19913;-66
2021/12/27 00:50:27;;;;;;;;;;;5.10;52.10;;;;;;5094927;28;20010;-67
2021/12/27 00:52:53;;;;;;;;;;;5.10;52.10;;;;;;5094794;28;19961;-67
2021/12/27 00:55:19;;;;;;;;;;;5.10;52.10;;;;;;5094846;28;19908;-67
2021/12/27 00:57:46;;;;;;;;;;;5.10;52.10;;;;;;5095803;28;19912;-67
2021/12/27 01:00:13;;;;;;;;;;;5.10;52.20;;;;;;5094737;28;19958;-66
2021/12/27 01:02:39;;;;;;;;;;;5.10;52.20;;;;;;5094588;28;20427;-67
2021/12/27 01:05:05;;;;;;;;;;;5.10;52.20;;;;;;5094649;28;19920;-67
2021/12/27 01:07:30;;;;;;;;;;;5.10;52.20;;;;;;5098336;28;20273;-67
2021/12/27 01:10:36;;;;;;;;;;;5.10;52.20;;;;;;5114544;28;19916;-67
2021/12/27 01:13:02;;;;;;;;;;;5.10;52.30;;;;;;5114428;28;19918;-67
2021/12/27 01:15:48;;;;;;;;;;;5.10;52.30;;;;;;5114974;28;19919;-67
2021/12/27 01:18:15;;;;;;;;;;;5.10;52.30;;;;;;5115706;28;20395;-67
2021/12/27 01:20:41;;;;;;;;;;;5.10;52.30;;;;;;5113959;28;19911;-66
2021/12/27 01:23:06;;;;;;;;;;;5.10;52.30;;;;;;5115689;28;19915;-67
2021/12/27 01:25:32;;;;;;;;;;;5.10;52.30;;;;;;5115557;28;20257;-67
2021/12/27 01:27:58;;;;;;;;;;;5.10;52.40;;;;;;5115547;28;19991;-67
2021/12/27 01:30:23;;;;;;;;;;;5.10;52.30;;;;;;5115530;28;19911;-67
2021/12/27 01:32:54;;;;;;;;;;;5.10;52.40;;;;;;5113673;27;19919;-67
2021/12/27 01:35:20;;;;;;;;;;;5.10;52.40;;;;;;5115464;28;19907;-67
2021/12/27 01:37:49;;;;;;;;;;;5.10;52.40;;;;;;5115341;28;19996;-67
2021/12/27 01:40:15;;;;;;;;;;;5.10;52.40;;;;;;5115342;28;19961;-67
2021/12/27 01:42:59;;;;;;;;;;;5.10;52.50;;;;;;5115373;28;19910;-67
2021/12/27 01:45:25;;;;;;;;;;;5.10;52.50;;;;;;5113630;28;19919;-67
2021/12/27 01:47:51;;;;;;;;;;;5.10;52.60;;;;;;5115160;28;20250;-67
2021/12/27 01:50:16;;;;;;;;;;;5.10;52.50;;;;;;5115060;28;19915;-67
2021/12/27 01:52:42;;;;;;;;;;;5.10;52.60;;;;;;5115204;28;19912;-67
2021/12/27 01:55:08;;;;;;;;;;;5.10;52.60;;;;;;5115341;28;19950;-67
2021/12/27 01:57:33;;;;;;;;;;;5.20;52.70;;;;;;5111510;28;19914;-67
2021/12/27 01:59:59;;;;;;;;;;;5.20;52.70;;;;;;5114441;28;19911;-67
2021/12/27 02:02:25;;;;;;;;;;;5.20;52.60;;;;;;5114896;28;19935;-66
2021/12/27 02:04:50;;;;;;;;;;;5.20;52.60;;;;;;5114724;28;19908;-67
2021/12/27 02:07:16;;;;;;;;;;;5.20;52.60;;;;;;5101951;28;20309;-67
2021/12/27 02:09:52;;;;;;;;;;;5.20;52.50;;;;;;5114610;28;19935;-67
2021/12/27 02:12:18;;;;;;;;;;;5.20;52.50;;;;;;5114519;28;20285;-67
2021/12/27 02:14:44;;;;;;;;;;;5.20;52.60;;;;;;5114444;28;19908;-67
2021/12/27 02:17:09;;;;;;;;;;;5.20;52.60;;;;;;5114340;28;19916;-67
2021/12/27 02:19:35;;;;;;;;;;;5.20;52.60;;;;;;5112669;28;19916;-68
2021/12/27 02:22:01;;;;;;;;;;;5.20;52.60;;;;;;5114297;28;19928;-67
2021/12/27 02:24:27;;;;;;;;;;;5.30;52.70;;;;;;5114336;28;19908;-66
2021/12/27 02:26:52;;;;;;;;;;;5.30;52.70;;;;;;5114260;28;19912;-67
2021/12/27 02:29:18;;;;;;;;;;;5.20;52.60;;;;;;5114084;28;20002;-67
2021/12/27 02:31:44;;;;;;;;;;;5.30;52.70;;;;;;5113028;28;19907;-67
2021/12/27 02:34:10;;;;;;;;;;;5.30;52.60;;;;;;5114080;28;19923;-67
2021/12/27 02:36:35;;;;;;;;;;;5.30;52.60;;;;;;5114121;28;20428;-67
2021/12/27 02:39:02;;;;;;;;;;;5.30;52.60;;;;;;5114120;28;19908;-67
2021/12/27 02:41:28;;;;;;;;;;;5.30;52.60;;;;;;5097058;28;20288;-66
2021/12/27 02:43:53;;;;;;;;;;;5.30;52.60;;;;;;5093615;28;19957;-67
2021/12/27 02:46:19;;;;;;;;;;;5.30;52.60;;;;;;5093654;28;20263;-66
2021/12/27 02:48:46;;;;;;;;;;;5.30;52.60;;;;;;5093547;28;19940;-67
2021/12/27 02:51:13;;;;;;;;;;;5.30;52.60;;;;;;5092238;28;20327;-67
2021/12/27 02:53:38;;;;;;;;;;;5.30;52.70;;;;;;5106166;28;19966;-67
2021/12/27 02:56:06;;;;;;;;;;;5.30;52.70;;;;;;5113790;28;19954;-67
2021/12/27 02:58:33;;;;;;;;;;;5.30;52.70;;;;;;5112394;28;20397;-66
2021/12/27 03:01:01;;;;;;;;;;;5.30;52.70;;;;;;5113650;28;19915;-67
2021/12/27 03:03:27;;;;;;;;;;;5.30;52.70;;;;;;5113610;28;20368;-67
2021/12/27 03:05:53;;;;;;;;;;;5.30;52.70;;;;;;5111804;28;19916;-67
2021/12/27 03:08:19;;;;;;;;;;;5.30;52.80;;;;;;5113239;28;20323;-67
2021/12/27 03:10:50;;;;;;;;;;;5.30;52.80;;;;;;5112932;28;19907;-67
2021/12/27 03:13:24;;;;;;;;;;;5.30;52.80;;;;;;5112061;28;19912;-67
2021/12/27 03:15:53;;;;;;;;;;;5.30;52.80;;;;;;5113275;28;19919;-67
2021/12/27 03:18:19;;;;;;;;;;;5.30;53.40;;;;;;5111510;28;19918;-67
2021/12/27 03:20:45;;;;;;;;;;;5.30;52.80;;;;;;5112031;28;19903;-67
2021/12/27 03:23:10;;;;;;;;;;;5.30;52.80;;;;;;5113307;28;19908;-67
2021/12/27 03:25:36;;;;;;;;;;;5.30;52.80;;;;;;5113346;28;19957;-67
2021/12/27 03:28:02;;;;;;;;;;;5.30;52.80;;;;;;5113157;28;19914;-67
2021/12/27 03:30:28;;;;;;;;;;;5.30;52.90;;;;;;5107770;28;19908;-67
2021/12/27 03:32:54;;;;;;;;;;;5.30;52.90;;;;;;5092753;28;19916;-67
2021/12/27 03:35:26;;;;;;;;;;;5.30;52.90;;;;;;5092759;28;19908;-67
2021/12/27 03:37:53;;;;;;;;;;;5.30;52.90;;;;;;5091547;28;20132;-67
2021/12/27 03:40:20;;;;;;;;;;;5.30;52.90;;;;;;5092770;28;19908;-67
2021/12/27 03:42:49;;;;;;;;;;;5.30;52.90;;;;;;5093610;28;19965;-67
2021/12/27 03:45:20;;;;;;;;;;;5.30;52.90;;;;;;5092723;28;19972;-67
2021/12/27 03:47:46;;;;;;;;;;;5.20;52.90;;;;;;5091415;28;19912;-67
2021/12/27 03:50:12;;;;;;;;;;;5.20;52.90;;;;;;5092682;28;19908;-67
2021/12/27 03:52:38;;;;;;;;;;;5.20;52.90;;;;;;5092637;28;20077;-68
2021/12/27 03:55:07;;;;;;;;;;;5.20;53.00;;;;;;5091565;28;19909;-67
2021/12/27 03:57:35;;;;;;;;;;;5.20;53.00;;;;;;5110745;28;19973;-67
2021/12/27 04:00:27;;;;;;;;;;;5.20;53.10;;;;;;5112961;28;19908;-67
2021/12/27 04:02:55;;;;;;;;;;;5.20;53.10;;;;;;5112855;28;20294;-67
2021/12/27 04:05:21;;;;;;;;;;;5.20;53.10;;;;;;5111531;28;19908;-66
2021/12/27 04:07:55;;;;;;;;;;;5.20;53.10;;;;;;5110968;28;19904;-67
2021/12/27 04:10:21;;;;;;;;;;;5.20;53.20;;;;;;5111537;28;19950;-66
2021/12/27 04:12:46;;;;;;;;;;;5.20;53.10;;;;;;5112667;28;19977;-67
2021/12/27 04:15:12;;;;;;;;;;;5.20;53.20;;;;;;5112516;28;20361;-67
2021/12/27 04:17:38;;;;;;;;;;;5.20;53.20;;;;;;5113131;28;19957;-67
2021/12/27 04:20:04;;;;;;;;;;;5.20;53.20;;;;;;5109614;28;19966;-67
2021/12/27 04:22:33;;;;;;;;;;;5.20;53.20;;;;;;5096295;28;19998;-68
2021/12/27 04:25:02;;;;;;;;;;;5.20;53.20;;;;;;5096273;28;20007;-67
2021/12/27 04:27:27;;;;;;;;;;;5.20;53.30;;;;;;5096251;28;19912;-67
2021/12/27 04:29:53;;;;;;;;;;;5.20;53.30;;;;;;5096138;28;20260;-66
2021/12/27 04:32:19;;;;;;;;;;;5.20;53.30;;;;;;5096898;28;19935;-67
2021/12/27 04:34:44;;;;;;;;;;;5.20;53.30;;;;;;5095832;28;19995;-67
2021/12/27 04:37:10;;;;;;;;;;;5.20;53.30;;;;;;5095003;28;19912;-67
2021/12/27 04:39:36;;;;;;;;;;;5.10;53.30;;;;;;5096044;28;19908;-67
2021/12/27 04:42:02;;;;;;;;;;;5.20;53.40;;;;;;5095872;28;20366;-67
2021/12/27 04:44:27;;;;;;;;;;;5.20;53.40;;;;;;5095699;28;19909;-67
2021/12/27 04:46:53;;;;;;;;;;;5.20;53.40;;;;;;5116284;27;19912;-67
2021/12/27 04:49:19;;;;;;;;;;;5.20;53.40;;;;;;5116302;28;19943;-67
2021/12/27 04:51:45;;;;;;;;;;;5.20;53.40;;;;;;5116164;28;19915;-67
2021/12/27 04:54:10;;;;;;;;;;;5.20;53.50;;;;;;5115973;28;19984;-67
2021/12/27 04:56:36;;;;;;;;;;;5.10;53.40;;;;;;5114342;28;19919;-67
2021/12/27 04:59:02;;;;;;;;;;;5.20;53.50;;;;;;5097024;28;20031;-67
2021/12/27 05:01:27;;;;;;;;;;;5.20;53.50;;;;;;5095514;28;19908;-66
2021/12/27 05:03:53;;;;;;;;;;;5.20;53.50;;;;;;5103896;28;19912;-67
2021/12/27 05:06:18;;;;;;;;;;;5.20;53.50;;;;;;5115844;28;20334;-67
2021/12/27 05:08:44;;;;;;;;;;;5.10;53.50;;;;;;5114372;28;19946;-67
2021/12/27 05:11:10;;;;;;;;;;;5.20;53.60;;;;;;5096232;28;20400;-66
2021/12/27 05:13:36;;;;;;;;;;;5.20;53.60;;;;;;5095228;28;20370;-66
2021/12/27 05:16:02;;;;;;;;;;;5.20;53.60;;;;;;5094936;28;19955;-66
2021/12/27 05:18:28;;;;;;;;;;;5.20;53.70;;;;;;5094751;28;19930;-67
2021/12/27 05:20:54;;;;;;;;;;;5.20;53.70;;;;;;5095151;28;19908;-67
2021/12/27 05:23:19;;;;;;;;;;;5.20;53.70;;;;;;5095895;28;19912;-67
2021/12/27 05:25:45;;;;;;;;;;;5.20;53.70;;;;;;5095093;28;19958;-67
2021/12/27 05:28:11;;;;;;;;;;;5.20;53.70;;;;;;5095012;28;20042;-67
2021/12/27 05:30:37;;;;;;;;;;;5.20;53.70;;;;;;5095015;28;19908;-67
2021/12/27 05:33:03;;;;;;;;;;;5.20;53.70;;;;;;5092565;28;19968;-67
2021/12/27 05:35:29;;;;;;;;;;;5.20;53.70;;;;;;5110778;28;20002;-67
2021/12/27 05:37:55;;;;;;;;;;;5.20;53.70;;;;;;5115265;28;20006;-67
2021/12/27 05:40:22;;;;;;;;;;;5.20;53.70;;;;;;5115130;28;19908;-67
2021/12/27 05:42:50;;;;;;;;;;;5.30;53.80;;;;;;5115196;28;20010;-67
2021/12/27 05:45:16;;;;;;;;;;;5.30;53.70;;;;;;5115144;28;19995;-67
2021/12/27 05:47:41;;;;;;;;;;;5.30;53.70;;;;;;5100872;28;19918;-67
2021/12/27 05:50:07;;;;;;;;;;;5.30;53.80;;;;;;5094613;28;20289;-67
2021/12/27 05:52:33;;;;;;;;;;;5.30;53.70;;;;;;5094524;28;19916;-67
2021/12/27 05:54:59;;;;;;;;;;;5.30;53.80;;;;;;5094318;28;19915;-67
2021/12/27 05:57:24;;;;;;;;;;;5.30;53.80;;;;;;5094579;28;20282;-67
2021/12/27 05:59:50;;;;;;;;;;;5.30;53.90;;;;;;5104442;28;20346;-67
2021/12/27 06:02:16;;;;;;;;;;;5.30;53.80;;;;;;5114635;28;19907;-66
2021/12/27 06:04:42;;;;;;;;;;;5.30;53.80;;;;;;5114687;28;19904;-67
2021/12/27 06:07:08;;;;;;;;;;;5.30;53.90;;;;;;5114665;28;20007;-67
2021/12/27 06:09:33;;;;;;;;;;;5.30;53.80;;;;;;5114676;28;19910;-67
2021/12/27 06:11:59;;;;;;;;;;;5.30;53.80;;;;;;5104653;28;20061;-67
2021/12/27 06:14:25;;;;;;;;;;;5.30;53.80;;;;;;5094071;28;20006;-66
2021/12/27 06:16:50;;;;;;;;;;;5.30;53.90;;;;;;5093962;28;20273;-67
2021/12/27 06:19:17;;;;;;;;;;;5.30;53.80;;;;;;5094211;28;19912;-67
2021/12/27 06:21:43;;;;;;;;;;;5.30;53.90;;;;;;5094121;28;20002;-67
2021/12/27 06:24:08;;;;;;;;;;;5.30;53.90;;;;;;5094946;28;19957;-67
2021/12/27 06:26:34;;;;;;;;;;;5.30;53.90;;;;;;5094057;28;19908;-67
2021/12/27 06:28:59;;;;;;;;;;;5.30;53.90;;;;;;5093998;28;19912;-66
2021/12/27 06:31:25;;;;;;;;;;;5.30;53.80;;;;;;5093851;28;19943;-67
2021/12/27 06:33:51;;;;;;;;;;;5.30;53.80;;;;;;5092425;28;19954;-67
2021/12/27 06:36:16;;;;;;;;;;;5.20;53.80;;;;;;5094778;28;19958;-67
2021/12/27 06:38:42;;;;;;;;;;;5.20;53.90;;;;;;5093842;28;20134;-67
2021/12/27 06:41:07;;;;;;;;;;;5.20;53.90;;;;;;5093826;28;19958;-67
2021/12/27 06:43:33;;;;;;;;;;;5.30;54.10;;;;;;5093636;28;19951;-68
2021/12/27 06:45:59;;;;;;;;;;;5.30;54.30;;;;;;5093645;28;19908;-67
2021/12/27 06:48:25;;;;;;;;;;;5.30;54.40;;;;;;5093619;28;19908;-67
2021/12/27 06:50:51;;;;;;;;;;;5.20;54.40;;;;;;5094487;28;19919;-67
2021/12/27 06:53:16;;;;;;;;;;;5.30;54.50;;;;;;5093475;28;19947;-67
2021/12/27 06:55:43;;;;;;;;;;;5.20;54.60;;;;;;5093539;28;20007;-67
2021/12/27 06:58:08;;;;;;;;;;;5.20;54.70;;;;;;5093587;28;20262;-66
2021/12/27 07:00:34;;;;;;;;;;;5.20;54.80;;;;;;5097612;28;19975;-67
2021/12/27 07:03:00;;;;;;;;;;;5.10;54.70;;;;;;5096619;28;19912;-67
2021/12/27 07:05:25;;;;;;;;;;;5.10;54.80;;;;;;5093430;28;19992;-67
2021/12/27 07:07:51;;;;;;;;;;;5.10;54.90;;;;;;5093350;28;19974;-67
2021/12/27 07:10:19;;;;;;;;;;;5.10;55.00;;;;;;5093222;28;19909;-67
2021/12/27 07:12:45;;;;;;;;;;;5.00;55.10;;;;;;5093319;28;19958;-67
2021/12/27 07:15:10;;;;;;;;;;;5.00;55.10;;;;;;5106032;28;19945;-68
2021/12/27 07:17:36;;;;;;;;;;;5.00;55.10;;;;;;5113782;28;19908;-68
2021/12/27 07:20:02;;;;;;;;;;;5.00;55.20;;;;;;5113789;28;19946;-67
2021/12/27 07:22:28;;;;;;;;;;;5.00;55.30;;;;;;5113519;28;19907;-68
2021/12/27 07:24:54;;;;;;;;;;;5.00;55.30;;;;;;5113467;28;19908;-68
2021/12/27 07:27:19;;;;;;;;;;;5.00;55.40;;;;;;5103758;27;19919;-67
2021/12/27 07:29:45;;;;;;;;;;;5.00;55.50;;;;;;5093070;28;20250;-67
2021/12/27 07:32:11;;;;;;;;;;;5.00;55.40;;;;;;5092962;28;19930;-67
2021/12/27 07:34:37;;;;;;;;;;;5.00;55.50;;;;;;5092915;28;20433;-67
2021/12/27 07:37:02;;;;;;;;;;;5.00;55.50;;;;;;5092924;28;20258;-67
2021/12/27 07:39:28;;;;;;;;;;;5.00;55.50;;;;;;5103074;28;19912;-68
2021/12/27 07:41:54;;;;;;;;;;;5.00;55.40;;;;;;5113273;28;19914;-67
2021/12/27 07:44:19;;;;;;;;;;;5.00;55.50;;;;;;5099404;28;20483;-68
2021/12/27 07:46:46;;;;;;;;;;;5.00;55.50;;;;;;5092768;28;19953;-68
2021/12/27 07:49:12;;;;;;;;;;;5.00;55.50;;;;;;5092745;28;19912;-67
2021/12/27 07:51:38;;;;;;;;;;;5.00;55.50;;;;;;5092730;28;19908;-67
2021/12/27 07:54:04;;;;;;;;;;;5.00;55.50;;;;;;5102226;28;19915;-68
2021/12/27 07:56:30;;;;;;;;;;;4.90;55.50;;;;;;5116015;28;19951;-67
2021/12/27 07:58:56;;;;;;;;;;;4.90;55.50;;;;;;5117244;28;19935;-67
2021/12/27 08:01:22;;;;;;;;;;;5.00;55.60;;;;;;5117127;28;19919;-68
2021/12/27 08:03:47;;;;;;;;;;;4.90;55.70;;;;;;5117022;28;19954;-67
2021/12/27 08:06:13;;;;;;;;;;;5.00;55.80;;;;;;5115196;28;19922;-67
2021/12/27 08:08:39;;;;;;;;;;;5.00;55.80;;;;;;5117064;28;19908;-67
2021/12/27 08:11:04;;;;;;;;;;;5.00;56.00;;;;;;5117024;28;19908;-68
2021/12/27 08:13:30;;;;;;;;;;;5.10;56.60;;;;;;5116998;28;19912;-67
2021/12/27 08:15:55;;;;;;;;;;;5.10;56.00;;;;;;5116923;28;19916;-67
2021/12/27 08:18:21;;;;;;;;;;;5.20;56.10;;;;;;5114926;28;19923;-67
2021/12/27 08:20:47;;;;;;;;;;;5.20;56.10;;;;;;5116746;28;19923;-68
2021/12/27 08:23:13;;;;;;;;;;;5.40;56.20;;;;;;5116721;28;20221;-67
2021/12/27 08:25:39;;;;;;;;;;;5.40;56.20;;;;;;5116660;28;19946;-68
2021/12/27 08:28:05;;;;;;;;;;;5.60;56.20;;;;;;5116587;28;19912;-67
2021/12/27 08:30:31;;;;;;;;;;;5.60;56.20;;;;;;5113536;28;19920;-68
2021/12/27 08:32:59;;;;;;;;;;;5.70;56.20;;;;;;5094715;28;19916;-67
2021/12/27 08:35:25;;;;;;;;;;;5.90;56.30;;;;;;5094897;28;20347;-66
2021/12/27 08:37:51;;;;;;;;;;;6.00;56.30;;;;;;5099615;28;19916;-66
2021/12/27 08:40:16;;;;;;;;;;;6.10;56.20;;;;;;5114688;28;19918;-67
2021/12/27 08:42:42;;;;;;;;;;;6.20;56.20;;;;;;5112276;28;19915;-66
2021/12/27 08:45:08;;;;;;;;;;;6.30;56.10;;;;;;5098653;28;19919;-66
2021/12/27 08:47:33;;;;;;;;;;;6.40;56.00;;;;;;5104763;28;19908;-68
2021/12/27 08:50:00;;;;;;;;;;;6.50;55.70;;;;;;5115156;28;19920;-67
2021/12/27 08:52:26;;;;;;;;;;;6.60;55.50;;;;;;5115037;28;19908;-67
2021/12/27 08:54:52;;;;;;;;;;;6.60;55.20;;;;;;5116439;28;19915;-68
2021/12/27 08:57:17;;;;;;;;;;;6.60;55.00;;;;;;5116196;28;19908;-67
2021/12/27 08:59:43;;;;;;;;;;;6.60;54.90;;;;;;5116290;28;19907;-67
2021/12/27 09:02:10;;;;;;;;;;;6.60;54.90;;;;;;5101678;28;20270;-67
2021/12/27 09:04:36;;;;;;;;;;;6.60;54.90;;;;;;5111085;28;19912;-68
2021/12/27 09:07:02;;;;;;;;;;;6.60;55.00;;;;;;5107309;28;20057;-67
2021/12/27 09:09:28;;;;;;;;;;;6.60;54.90;;;;;;5110721;28;19908;-67
2021/12/27 09:11:53;;;;;;;;;;;6.60;54.80;;;;;;5115937;28;19952;-67
2021/12/27 09:14:19;;;;;;;;;;;6.60;54.90;;;;;;5115821;28;19912;-68
2021/12/27 09:16:45;;;;;;;;;;;6.70;55.10;;;;;;5115607;28;19915;-65
2021/12/27 09:19:14;;;;;;;;;;;6.80;55.20;;;;;;5115624;28;20293;-68
2021/12/27 09:21:40;;;;;;;;;;;6.90;55.00;;;;;;5115698;28;19991;-65
2021/12/27 09:24:06;;;;;;;;;;;6.90;54.80;;;;;;5115648;28;19939;-68
2021/12/27 09:26:31;;;;;;;;;;;7.00;54.70;;;;;;5108255;28;20004;-66
2021/12/27 09:28:57;;;;;;;;;;;7.00;54.60;;;;;;5095004;28;19961;-66
2021/12/27 09:31:23;;;;;;;;;;;7.10;54.60;;;;;;5102779;28;19911;-66
2021/12/27 09:33:49;;;;;;;;;;;7.10;54.40;;;;;;5115387;28;20266;-65
2021/12/27 09:36:15;;;;;;;;;;;7.10;54.30;;;;;;5115656;28;20353;-66
2021/12/27 09:38:40;;;;;;;;;;;7.20;54.50;;;;;;5115643;28;20400;-66
2021/12/27 09:41:06;;;;;;;;;;;7.30;54.60;;;;;;5114054;28;20007;-66
2021/12/27 09:43:31;;;;;;;;;;;7.30;54.50;;;;;;5113487;28;19919;-66
2021/12/27 09:45:57;;;;;;;;;;;7.40;54.50;;;;;;5103758;28;20329;-66
2021/12/27 09:48:23;;;;;;;;;;;7.50;54.60;;;;;;5109315;28;19916;-66
2021/12/27 09:50:50;;;;;;;;;;;7.60;54.60;;;;;;5115182;28;20289;-66
2021/12/27 09:53:16;;;;;;;;;;;7.70;54.70;;;;;;5114346;28;19912;-67
2021/12/27 09:55:41;;;;;;;;;;;7.90;54.70;;;;;;5111325;28;19915;-67
2021/12/27 09:58:07;;;;;;;;;;;8.00;54.50;;;;;;5109911;28;19912;-67
2021/12/27 10:00:34;;;;;;;;;;;8.10;54.40;;;;;;5113584;28;19915;-66
2021/12/27 10:03:00;;;;;;;;;;;8.10;54.10;;;;;;5108964;28;19908;-67
2021/12/27 10:05:27;;;;;;;;;;;8.20;53.90;;;;;;5113087;28;19914;-67
2021/12/27 10:07:53;;;;;;;;;;;8.30;53.90;;;;;;5115455;28;20272;-67
2021/12/27 10:10:19;;;;;;;;;;;8.40;53.70;;;;;;5115166;28;19995;-67
2021/12/27 10:12:46;;;;;;;;;;;8.40;53.50;;;;;;5114947;28;19954;-66
2021/12/27 10:15:14;;;;;;;;;;;8.40;53.20;;;;;;5111802;27;20329;-67
2021/12/27 10:17:42;;;;;;;;;;;8.40;53.10;;;;;;5101649;27;19962;-67
2021/12/27 10:20:16;;;;;;;;;;;8.40;53.10;;;;;;5110044;28;19944;-67
2021/12/27 10:22:46;;;;;;;;;;;8.40;53.00;;;;;;5114681;28;20365;-66
2021/12/27 10:25:19;;;;;;;;;;;8.30;52.90;;;;;;5100419;28;19912;-66
2021/12/27 10:27:46;;;;;;;;;;;8.30;52.90;;;;;;5094092;28;19962;-67
2021/12/27 10:30:13;;;;;;;;;;;8.30;53.00;;;;;;5094692;28;19973;-68
2021/12/27 10:32:39;;;;;;;;;;;8.30;53.10;;;;;;5113058;28;19912;-68
2021/12/27 10:35:06;;;;;;;;;;;8.30;53.00;;;;;;5111322;28;19934;-67
2021/12/27 10:37:32;;;;;;;;;;;8.30;53.00;;;;;;5112780;28;19912;-67
2021/12/27 10:39:57;;;;;;;;;;;8.40;53.10;;;;;;5114370;28;19907;-67
2021/12/27 10:42:25;;;;;;;;;;;8.40;53.10;;;;;;5094748;28;19912;-67
2021/12/27 10:44:53;;;;;;;;;;;8.40;53.50;;;;;;5102979;28;19919;-67
2021/12/27 10:47:38;;;;;;;;;;;8.40;52.70;;;;;;5113681;28;20296;-68
2021/12/27 10:50:25;;;;;;;;;;;8.40;52.50;;;;;;5111894;28;20379;-68
2021/12/27 10:52:55;;;;;;;;;;;8.30;52.40;;;;;;5107196;28;20300;-68
2021/12/27 10:55:26;;;;;;;;;;;8.30;52.30;;;;;;5105724;28;20397;-68
2021/12/27 10:57:52;;;;;;;;;;;8.20;52.30;;;;;;5112010;28;19918;-67
2021/12/27 11:00:18;;;;;;;;;;;8.10;52.10;;;;;;5096312;28;19997;-68
2021/12/27 11:02:43;;;;;;;;;;;8.10;52.20;;;;;;5099695;28;19967;-67
2021/12/27 11:05:16;;;;;;;;;;;8.00;52.30;;;;;;5111636;28;20387;-68
2021/12/27 11:07:42;;;;;;;;;;;8.00;52.40;;;;;;5112203;28;19912;-68
2021/12/27 11:10:09;;;;;;;;;;;8.00;52.60;;;;;;5100664;28;19912;-68
2021/12/27 11:12:34;;;;;;;;;;;7.90;52.60;;;;;;5092402;28;20305;-68
2021/12/27 11:15:00;;;;;;;;;;;7.90;52.70;;;;;;5092386;28;19916;-68
2021/12/27 11:17:25;;;;;;;;;;;7.90;52.80;;;;;;5105173;28;20008;-68
2021/12/27 11:19:51;;;;;;;;;;;7.90;52.90;;;;;;5112697;28;19919;-67
2021/12/27 11:22:17;;;;;;;;;;;8.00;53.00;;;;;;5112486;28;19959;-68
2021/12/27 11:24:44;;;;;;;;;;;8.00;53.00;;;;;;5112552;28;19998;-67
2021/12/27 11:27:11;;;;;;;;;;;8.00;53.00;;;;;;5094492;28;19912;-68
2021/12/27 11:29:37;;;;;;;;;;;8.00;53.00;;;;;;5097968;28;19957;-67
2021/12/27 11:32:17;;;;;;;;;;;8.00;53.00;;;;;;5111864;28;19908;-67
2021/12/27 11:34:59;;;;;;;;;;;8.10;52.90;;;;;;5099988;28;20393;-67
2021/12/27 11:37:42;;;;;;;;;;;8.10;52.90;;;;;;5092071;28;19915;-67
2021/12/27 11:40:12;;;;;;;;;;;8.10;52.90;;;;;;5095569;28;19919;-67
2021/12/27 11:42:54;;;;;;;;;;;8.10;52.90;;;;;;5107677;28;20376;-68
2021/12/27 11:45:38;;;;;;;;;;;8.20;52.90;;;;;;5091851;28;19966;-68
2021/12/27 11:48:12;;;;;;;;;;;8.20;52.90;;;;;;5092878;28;19972;-68
2021/12/27 11:50:56;;;;;;;;;;;8.20;52.80;;;;;;5105641;28;19912;-68
2021/12/27 11:53:29;;;;;;;;;;;8.20;52.70;;;;;;5094171;28;19916;-68
2021/12/27 11:55:55;;;;;;;;;;;8.20;52.60;;;;;;5110706;28;20436;-66
2021/12/27 11:58:34;;;;;;;;;;;8.20;52.60;;;;;;5109968;28;19963;-67
2021/12/27 12:01:00;;;;;;;;;;;8.20;52.60;;;;;;5107992;28;19908;-68
2021/12/27 12:03:44;;;;;;;;;;;8.20;52.50;;;;;;5111555;28;19923;-68
2021/12/27 12:06:28;;;;;;;;;;;8.20;52.60;;;;;;5110334;28;19911;-68
2021/12/27 12:08:55;;;;;;;;;;;8.20;52.50;;;;;;5096692;28;19924;-68
2021/12/27 12:11:31;;;;;;;;;;;8.20;52.40;;;;;;5107845;28;19923;-67
2021/12/27 12:13:59;;;;;;;;;;;8.30;52.60;;;;;;5102632;28;19919;-67
2021/12/27 12:16:26;;;;;;;;;;;8.30;52.50;;;;;;5103606;28;19958;-68
2021/12/27 12:18:52;;;;;;;;;;;8.30;52.50;;;;;;5091576;28;20259;-68
2021/12/27 12:21:33;;;;;;;;;;;8.30;52.50;;;;;;5091536;28;20014;-67
2021/12/27 12:24:27;;;;;;;;;;;8.30;52.50;;;;;;5093394;28;19959;-67
2021/12/27 12:26:54;;;;;;;;;;;8.30;52.50;;;;;;5094326;28;19908;-67
2021/12/27 12:29:21;;;;;;;;;;;8.30;52.50;;;;;;5111793;28;19922;-68
2021/12/27 12:31:46;;;;;;;;;;;8.30;52.30;;;;;;5111488;28;19908;-67
2021/12/27 12:34:15;;;;;;;;;;;8.30;52.30;;;;;;5106258;28;20280;-67
2021/12/27 12:37:00;;;;;;;;;;;8.20;52.20;;;;;;5111133;28;19931;-67
2021/12/27 12:39:33;;;;;;;;;;;8.20;52.20;;;;;;5109841;28;19957;-68
2021/12/27 12:42:26;;;;;;;;;;;8.10;52.20;;;;;;5101986;28;20026;-67
2021/12/27 12:44:51;;;;;;;;;;;8.10;52.30;;;;;;5108523;28;19919;-67
2021/12/27 12:47:17;;;;;;;;;;;8.10;52.40;;;;;;5111766;28;19912;-67
2021/12/27 12:49:43;;;;;;;;;;;8.10;52.50;;;;;;5094961;28;19939;-68
2021/12/27 12:52:09;;;;;;;;;;;8.10;52.60;;;;;;5099111;28;19962;-68
2021/12/27 12:54:36;;;;;;;;;;;8.10;52.70;;;;;;5108721;28;19919;-67
2021/12/27 12:57:09;;;;;;;;;;;8.10;52.70;;;;;;5114932;28;19990;-67
2021/12/27 12:59:45;;;;;;;;;;;8.10;52.70;;;;;;5114407;28;19912;-67
2021/12/27 13:02:13;;;;;;;;;;;8.10;52.70;;;;;;5110173;28;20369;-67
2021/12/27 13:04:41;;;;;;;;;;;8.10;52.60;;;;;;5096245;28;20004;-67
2021/12/27 13:07:07;;;;;;;;;;;8.10;52.60;;;;;;5096419;28;19912;-67
2021/12/27 13:09:40;;;;;;;;;;;8.10;52.60;;;;;;5101010;28;19912;-67
2021/12/27 13:12:06;;;;;;;;;;;8.10;52.50;;;;;;5124114;27;19954;-67
2021/12/27 13:14:31;;;;;;;;;;;8.10;52.50;;;;;;5096304;28;19952;-67
2021/12/27 13:16:57;;;;;;;;;;;8.00;52.40;;;;;;5095178;28;19942;-67
2021/12/27 13:19:22;;;;;;;;;;;8.00;52.40;;;;;;5095273;28;20015;-66
2021/12/27 13:21:48;;;;;;;;;;;8.00;52.50;;;;;;5095226;28;19912;-66
2021/12/27 13:24:14;;;;;;;;;;;8.00;52.50;;;;;;5095248;28;19908;-67
2021/12/27 13:26:40;;;;;;;;;;;8.00;52.60;;;;;;5095161;28;20246;-67
2021/12/27 13:29:05;;;;;;;;;;;8.00;52.50;;;;;;5095061;28;20007;-67
2021/12/27 13:31:32;;;;;;;;;;;8.00;52.50;;;;;;5094891;28;20045;-66
2021/12/27 13:34:05;;;;;;;;;;;8.00;52.50;;;;;;5094808;28;19916;-67
2021/12/27 13:36:33;;;;;;;;;;;8.00;52.60;;;;;;5094796;28;19915;-67
2021/12/27 13:39:07;;;;;;;;;;;7.90;52.60;;;;;;5093604;28;19929;-67
2021/12/27 13:41:34;;;;;;;;;;;7.90;52.60;;;;;;5094885;28;20037;-66
2021/12/27 13:44:01;;;;;;;;;;;7.90;52.70;;;;;;5094671;28;19993;-67
2021/12/27 13:46:29;;;;;;;;;;;7.90;52.70;;;;;;5094659;28;20284;-67
2021/12/27 13:48:55;;;;;;;;;;;7.90;52.70;;;;;;5093449;28;20277;-67
2021/12/27 13:51:24;;;;;;;;;;;7.90;52.70;;;;;;5103891;28;19908;-66
2021/12/27 13:54:09;;;;;;;;;;;7.90;52.70;;;;;;5113875;27;19912;-66
2021/12/27 13:56:36;;;;;;;;;;;7.80;52.70;;;;;;5114897;28;19907;-65
2021/12/27 13:59:07;;;;;;;;;;;7.90;52.70;;;;;;5114793;28;20007;-67
2021/12/27 14:01:33;;;;;;;;;;;7.80;52.70;;;;;;5114693;28;19907;-67
2021/12/27 14:04:10;;;;;;;;;;;7.80;52.70;;;;;;5114595;27;19961;-66
2021/12/27 14:06:40;;;;;;;;;;;7.80;52.80;;;;;;5114666;27;19938;-67
2021/12/27 14:09:06;;;;;;;;;;;7.80;52.80;;;;;;5108519;28;19933;-67
2021/12/27 14:11:31;;;;;;;;;;;7.80;52.80;;;;;;5114554;28;19907;-67
2021/12/27 14:13:58;;;;;;;;;;;7.80;52.80;;;;;;5113070;28;19912;-67
2021/12/27 14:16:25;;;;;;;;;;;7.80;52.80;;;;;;5114275;28;19943;-67
2021/12/27 14:19:00;;;;;;;;;;;7.70;52.80;;;;;;5114413;28;19908;-67
2021/12/27 14:21:26;;;;;;;;;;;7.70;52.70;;;;;;5114270;28;20359;-66
2021/12/27 14:24:07;;;;;;;;;;;7.70;52.70;;;;;;5114436;28;19961;-66
2021/12/27 14:26:34;;;;;;;;;;;7.60;52.70;;;;;;5114375;28;19908;-67
2021/12/27 14:29:14;;;;;;;;;;;7.60;52.80;;;;;;5113924;28;19908;-67
2021/12/27 14:31:39;;;;;;;;;;;7.60;52.90;;;;;;5114175;28;19904;-66
2021/12/27 14:34:05;;;;;;;;;;;7.50;52.80;;;;;;5114003;28;20097;-66